Old Harbor, Alaska
Current Conditions -  °F | °C
As of 8:55 PM on Wednesday 28 Jan 2015 (Local Time) from PADQ Reporting Station
Overcast Overcast  
Wind Chill: 28°   Ceiling: 3400
Heat Index: 36°   Visibility: 10mi
Dew Point: 32°   Wind: 12mph
Humidity: 86%   Direction: 300°WNW
Pressure: 29.84"   Gusts: NA
Location:  57.2°N, 153.31°W
Report Text: PADQ 290555Z 30010KT 10SM OVC034 02/00 A2984 RMK AO2 RAE54 P0000 T00220000 $
Loading
Personal Weather Stations






























Interactive Weather Map New forecast layout! Learn more

10-Day Weather Forecast

Advertisements
Track Severe Weather on mobile